createdAt,value
2022-10-06T00:02:53.116Z,15.55
2022-10-06T00:06:01.993Z,15.45
2022-10-06T00:09:05.825Z,15.47
2022-10-06T00:12:10.484Z,15.39
2022-10-06T00:15:18.820Z,15.34
2022-10-06T00:18:23.242Z,15.28
2022-10-06T00:21:27.280Z,15.27
2022-10-06T00:24:32.100Z,15.18
2022-10-06T00:27:42.481Z,15.11
2022-10-06T00:30:47.163Z,15.05
2022-10-06T00:33:51.067Z,14.97
2022-10-06T00:36:54.899Z,14.94
2022-10-06T00:39:59.292Z,14.91
2022-10-06T00:43:05.801Z,14.90
2022-10-06T00:46:14.062Z,14.89
2022-10-06T00:49:19.899Z,14.92
2022-10-06T00:52:27.400Z,15.09
2022-10-06T00:55:31.892Z,15.31
2022-10-06T00:58:35.751Z,15.55
2022-10-06T01:01:46.315Z,15.69
2022-10-06T01:04:55.716Z,15.80
2022-10-06T01:07:59.774Z,15.82
2022-10-06T01:11:03.851Z,15.85
2022-10-06T01:14:07.835Z,15.87
2022-10-06T01:17:20.995Z,15.92
2022-10-06T01:20:25.297Z,15.91
2022-10-06T01:23:31.881Z,15.89
2022-10-06T01:26:39.226Z,15.94
2022-10-06T01:29:43.450Z,15.97
2022-10-06T01:32:47.610Z,15.92
2022-10-06T01:35:53.252Z,15.85
2022-10-06T01:38:58.210Z,15.75
2022-10-06T01:42:02.612Z,15.70
2022-10-06T01:45:07.940Z,15.68
2022-10-06T01:48:12.082Z,15.61
2022-10-06T01:51:16.545Z,15.54
2022-10-06T01:54:20.574Z,15.48
2022-10-06T01:57:24.525Z,15.44
2022-10-06T02:00:28.413Z,15.49
2022-10-06T02:03:37.531Z,15.56
2022-10-06T02:06:41.490Z,15.49
2022-10-06T02:09:45.777Z,15.41
2022-10-06T02:12:53.215Z,15.30
2022-10-06T02:15:58.262Z,15.23
2022-10-06T02:19:02.156Z,15.21
2022-10-06T02:22:06.076Z,15.13
2022-10-06T02:25:12.126Z,15.08
2022-10-06T02:28:16.849Z,15.12
2022-10-06T02:31:20.839Z,15.17
2022-10-06T02:34:25.357Z,15.19
2022-10-06T02:37:29.989Z,15.22
2022-10-06T02:40:34.827Z,15.23
2022-10-06T02:43:38.973Z,15.23
2022-10-06T02:46:43.146Z,15.24
2022-10-06T02:49:47.291Z,15.27
2022-10-06T02:52:51.328Z,15.30
2022-10-06T02:56:15.876Z,15.29
2022-10-06T02:59:19.898Z,15.29
2022-10-06T03:02:23.848Z,15.29
2022-10-06T03:05:28.405Z,15.38
2022-10-06T03:08:33.283Z,15.50
2022-10-06T03:11:40.499Z,15.64
2022-10-06T03:14:44.424Z,15.79
2022-10-06T03:17:50.024Z,15.83
2022-10-06T03:20:54.254Z,15.89
2022-10-06T03:23:58.897Z,15.90
2022-10-06T03:27:03.313Z,15.99
2022-10-06T03:30:10.107Z,16.06
2022-10-06T03:33:14.816Z,16.05
2022-10-06T03:36:20.925Z,16.09
2022-10-06T03:39:24.878Z,16.15
2022-10-06T03:42:29.093Z,16.17
2022-10-06T03:45:33.126Z,16.17
2022-10-06T03:48:37.497Z,16.22
2022-10-06T03:51:42.219Z,16.23
2022-10-06T03:54:46.232Z,16.22
2022-10-06T03:57:53.045Z,16.19
2022-10-06T04:01:00.016Z,16.15
2022-10-06T04:04:05.083Z,16.18
2022-10-06T04:07:09.035Z,16.19
2022-10-06T04:10:13.047Z,16.21
2022-10-06T04:13:18.594Z,16.19
2022-10-06T04:16:28.848Z,16.21
2022-10-06T04:19:33.310Z,16.18
2022-10-06T04:22:37.282Z,16.24
2022-10-06T04:25:40.964Z,16.24
2022-10-06T04:28:45.839Z,16.22
2022-10-06T04:31:50.567Z,16.22
2022-10-06T04:34:54.625Z,16.25
2022-10-06T04:37:59.202Z,16.24
2022-10-06T04:41:19.314Z,16.23
2022-10-06T04:44:23.443Z,16.29
2022-10-06T04:47:27.241Z,16.35
2022-10-06T04:50:31.304Z,16.37
2022-10-06T04:53:35.094Z,16.26
2022-10-06T04:56:38.885Z,16.21
2022-10-06T05:00:07.850Z,16.05
2022-10-06T05:03:14.175Z,15.97
2022-10-06T05:06:19.256Z,15.92
2022-10-06T05:09:23.073Z,15.84
2022-10-06T05:12:30.172Z,15.78
2022-10-06T05:15:34.269Z,15.73
2022-10-06T05:18:38.632Z,15.70
2022-10-06T05:21:42.253Z,15.67
2022-10-06T05:24:45.982Z,15.64
2022-10-06T05:27:50.331Z,15.63
2022-10-06T05:31:14.548Z,15.61
2022-10-06T05:34:18.512Z,15.60
2022-10-06T05:37:22.873Z,15.60
2022-10-06T05:40:26.888Z,15.58
2022-10-06T05:43:31.842Z,15.54
2022-10-06T05:46:36.168Z,15.49
2022-10-06T05:49:40.029Z,15.41
2022-10-06T05:52:43.979Z,15.39
2022-10-06T05:55:47.754Z,15.43
2022-10-06T05:58:53.411Z,15.39
2022-10-06T06:01:57.379Z,15.35
2022-10-06T06:05:01.672Z,15.36
2022-10-06T06:08:05.490Z,15.44
2022-10-06T06:11:09.670Z,15.37
2022-10-06T06:14:16.287Z,15.28
2022-10-06T06:17:20.070Z,15.31
2022-10-06T06:20:23.955Z,15.32
2022-10-06T06:23:33.523Z,15.26
2022-10-06T06:26:38.044Z,15.28
2022-10-06T06:29:42.171Z,15.24
2022-10-06T06:32:46.537Z,15.20
2022-10-06T06:35:50.271Z,15.26
2022-10-06T06:38:56.424Z,15.21
2022-10-06T06:42:02.060Z,15.26
2022-10-06T06:45:09.202Z,15.16
2022-10-06T06:48:16.761Z,15.17
2022-10-06T06:51:24.376Z,15.18
2022-10-06T06:54:29.195Z,15.18
2022-10-06T06:57:33.201Z,15.26
2022-10-06T07:00:37.065Z,15.31
2022-10-06T07:03:57.205Z,15.31
2022-10-06T07:07:02.796Z,15.36
2022-10-06T07:10:07.558Z,15.39
2022-10-06T07:13:17.311Z,15.41
2022-10-06T07:16:41.294Z,15.37
2022-10-06T07:20:04.603Z,15.43
2022-10-06T07:23:37.162Z,15.52
2022-10-06T07:26:41.492Z,15.52
2022-10-06T07:29:46.997Z,15.38
2022-10-06T07:32:52.217Z,15.25
2022-10-06T07:35:56.615Z,15.25
2022-10-06T07:39:01.034Z,15.23
2022-10-06T07:42:11.928Z,15.28
2022-10-06T07:45:40.692Z,15.36
2022-10-06T07:48:47.129Z,15.41
2022-10-06T07:51:51.141Z,15.48
2022-10-06T07:54:56.522Z,15.63
2022-10-06T07:58:01.202Z,15.71
2022-10-06T08:01:11.508Z,15.72
2022-10-06T08:04:16.077Z,15.68
2022-10-06T08:07:20.575Z,15.70
2022-10-06T08:10:25.117Z,15.80
2022-10-06T08:13:32.238Z,15.75
2022-10-06T08:16:38.903Z,15.80
2022-10-06T08:19:43.607Z,15.89
2022-10-06T08:22:48.203Z,15.97
2022-10-06T08:25:54.238Z,16.04
2022-10-06T08:29:03.256Z,16.21
2022-10-06T08:32:07.943Z,16.32
2022-10-06T08:35:11.926Z,16.53
2022-10-06T08:38:15.931Z,16.62
2022-10-06T08:41:27.983Z,16.67
2022-10-06T08:44:42.265Z,16.67
2022-10-06T08:48:00.428Z,16.63
2022-10-06T08:51:15.155Z,16.70
2022-10-06T08:54:31.431Z,16.68
2022-10-06T08:58:12.735Z,16.80
2022-10-06T09:01:23.681Z,16.99
2022-10-06T09:04:33.364Z,17.07
2022-10-06T09:07:52.355Z,17.09
2022-10-06T09:11:34.471Z,17.20
2022-10-06T09:14:56.536Z,17.19
2022-10-06T09:18:13.238Z,17.02
2022-10-06T09:21:19.580Z,16.93
2022-10-06T09:24:47.198Z,16.94
2022-10-06T09:27:58.235Z,16.96
2022-10-06T09:31:03.499Z,17.10
2022-10-06T09:34:13.584Z,17.19
2022-10-06T09:37:27.665Z,17.24
2022-10-06T09:40:38.268Z,17.38
2022-10-06T09:43:52.982Z,17.24
2022-10-06T09:46:57.110Z,17.20
2022-10-06T09:50:24.376Z,17.14
2022-10-06T09:53:28.540Z,17.19
2022-10-06T09:56:33.336Z,17.19
2022-10-06T09:59:43.465Z,17.20
2022-10-06T10:02:47.995Z,17.18
2022-10-06T10:06:02.222Z,17.20
2022-10-06T10:09:22.717Z,17.26
2022-10-06T10:12:28.066Z,17.32
2022-10-06T10:15:48.208Z,17.28
2022-10-06T10:18:53.163Z,17.15
2022-10-06T10:21:57.512Z,17.09
2022-10-06T10:25:24.613Z,17.18
2022-10-06T10:28:48.374Z,17.30
2022-10-06T10:32:15.233Z,17.44
2022-10-06T10:35:24.748Z,17.58
2022-10-06T10:38:29.349Z,17.65
2022-10-06T10:41:42.295Z,17.81
2022-10-06T10:45:12.906Z,17.86
2022-10-06T10:48:31.632Z,17.89
2022-10-06T10:52:05.106Z,18.14
2022-10-06T10:55:29.739Z,17.99
2022-10-06T10:58:37.496Z,17.76
2022-10-06T11:02:05.118Z,17.59
2022-10-06T11:05:33.297Z,17.72
2022-10-06T11:08:49.299Z,17.90
2022-10-06T11:12:03.551Z,17.96
2022-10-06T11:15:11.104Z,18.08
2022-10-06T11:18:41.414Z,18.00
2022-10-06T11:21:55.249Z,18.07
2022-10-06T11:25:25.676Z,18.02
2022-10-06T11:28:45.265Z,18.06
2022-10-06T11:31:58.761Z,18.10
2022-10-06T11:35:06.587Z,18.07
2022-10-06T11:38:40.233Z,18.11
2022-10-06T11:41:53.354Z,18.11
2022-10-06T11:45:04.284Z,18.13
2022-10-06T11:48:21.173Z,18.16
2022-10-06T11:51:26.078Z,17.97
2022-10-06T11:54:53.069Z,18.08
2022-10-06T11:58:17.868Z,18.01
2022-10-06T12:01:30.422Z,18.09
2022-10-06T12:04:34.504Z,18.14
2022-10-06T12:08:07.755Z,18.21
2022-10-06T12:11:41.033Z,18.23
2022-10-06T12:18:59.683Z,18.25
2022-10-06T12:22:18.012Z,18.28
2022-10-06T12:25:29.533Z,18.24
2022-10-06T12:28:40.849Z,18.17
2022-10-06T12:31:55.000Z,18.10
2022-10-06T12:35:03.337Z,18.13
2022-10-06T12:38:41.543Z,18.18
2022-10-06T12:42:01.339Z,18.17
2022-10-06T12:45:15.748Z,18.12
2022-10-06T12:48:28.679Z,18.17
2022-10-06T12:51:43.166Z,18.14
2022-10-06T12:55:17.596Z,18.23
2022-10-06T12:58:31.024Z,18.22
2022-10-06T13:01:35.274Z,18.26
2022-10-06T13:04:40.708Z,18.23
2022-10-06T13:08:05.245Z,18.22
2022-10-06T13:11:41.526Z,18.24
2022-10-06T13:14:47.274Z,18.29
2022-10-06T13:17:52.845Z,18.31
2022-10-06T13:20:58.322Z,18.28
2022-10-06T13:24:03.424Z,18.27
2022-10-06T13:27:17.415Z,18.32
2022-10-06T13:30:26.208Z,18.26
2022-10-06T13:33:38.349Z,18.27
2022-10-06T13:36:46.710Z,18.28
2022-10-06T13:39:50.567Z,18.29
2022-10-06T13:42:55.880Z,18.27
2022-10-06T13:46:00.903Z,18.25
2022-10-06T13:49:17.120Z,18.25
2022-10-06T13:52:38.831Z,18.22
2022-10-06T13:55:49.762Z,18.24
2022-10-06T13:58:53.988Z,18.25
2022-10-06T14:02:15.079Z,18.26
2022-10-06T14:05:36.514Z,18.23
2022-10-06T14:08:40.370Z,18.23
2022-10-06T14:11:46.233Z,18.17
2022-10-06T14:14:53.029Z,18.21
2022-10-06T14:18:00.082Z,18.22
2022-10-06T14:21:36.823Z,18.17
2022-10-06T14:24:50.923Z,18.11
2022-10-06T14:27:55.199Z,18.04
2022-10-06T14:30:59.065Z,18.04
2022-10-06T14:34:04.495Z,17.97
2022-10-06T14:37:16.058Z,17.92
2022-10-06T14:40:20.143Z,17.93
2022-10-06T14:43:24.972Z,17.92
2022-10-06T14:46:30.062Z,17.89
2022-10-06T14:49:36.281Z,17.86
2022-10-06T14:52:40.703Z,17.81
2022-10-06T14:55:45.467Z,17.76
2022-10-06T14:58:51.313Z,17.77
2022-10-06T15:01:55.911Z,17.70
2022-10-06T15:05:09.545Z,17.66
2022-10-06T15:08:18.212Z,17.64
2022-10-06T15:11:23.933Z,17.57
2022-10-06T15:14:29.537Z,17.55
2022-10-06T15:17:33.844Z,17.55
2022-10-06T15:20:38.092Z,17.46
2022-10-06T15:23:42.467Z,17.46
2022-10-06T15:27:06.027Z,17.37
2022-10-06T15:30:11.302Z,17.29
2022-10-06T15:33:16.212Z,17.27
2022-10-06T15:36:23.675Z,17.24
2022-10-06T15:39:30.070Z,17.31
2022-10-06T15:42:33.996Z,17.25
2022-10-06T15:45:38.220Z,17.20
2022-10-06T15:48:43.147Z,17.11
2022-10-06T15:51:49.921Z,17.09
2022-10-06T15:54:54.058Z,17.02
2022-10-06T15:57:58.041Z,16.99
2022-10-06T16:01:04.023Z,16.93
2022-10-06T16:04:20.366Z,16.89
2022-10-06T16:07:24.671Z,16.81
2022-10-06T16:10:28.912Z,16.76
2022-10-06T16:13:35.703Z,16.73
2022-10-06T16:16:43.659Z,16.67
2022-10-06T16:19:48.037Z,16.62
2022-10-06T16:22:51.796Z,16.60
2022-10-06T16:25:55.484Z,16.56
2022-10-06T16:29:00.211Z,16.54
2022-10-06T16:32:04.231Z,16.49
2022-10-06T16:35:08.553Z,16.42
2022-10-06T16:38:12.700Z,16.35
2022-10-06T16:41:17.398Z,16.30
2022-10-06T16:44:21.567Z,16.25
2022-10-06T16:47:25.760Z,16.16
2022-10-06T16:50:30.091Z,16.09
2022-10-06T16:53:56.769Z,16.02
2022-10-06T16:57:06.501Z,15.94
2022-10-06T17:00:11.304Z,15.86
2022-10-06T17:03:15.130Z,15.82
2022-10-06T17:06:18.954Z,15.80
2022-10-06T17:09:25.390Z,15.72
2022-10-06T17:12:29.397Z,15.64
2022-10-06T17:15:33.793Z,15.60
2022-10-06T17:18:37.987Z,15.51
2022-10-06T17:21:48.113Z,15.37
2022-10-06T17:24:53.947Z,15.29
2022-10-06T17:27:57.774Z,15.27
2022-10-06T17:31:02.206Z,15.25
2022-10-06T17:34:11.249Z,15.19
2022-10-06T17:37:17.219Z,15.09
2022-10-06T17:40:21.493Z,15.08
2022-10-06T17:43:25.673Z,15.05
2022-10-06T17:46:38.145Z,14.99
2022-10-06T17:49:42.042Z,14.98
2022-10-06T17:52:46.518Z,14.94
2022-10-06T17:55:50.232Z,14.93
2022-10-06T17:58:59.515Z,14.86
2022-10-06T18:02:03.799Z,14.75
2022-10-06T18:05:08.189Z,14.62
2022-10-06T18:08:13.104Z,14.59
2022-10-06T18:11:37.628Z,14.55
2022-10-06T18:14:43.331Z,14.53
2022-10-06T18:17:52.504Z,14.50
2022-10-06T18:21:03.872Z,14.43
2022-10-06T18:24:19.277Z,14.38
2022-10-06T18:27:24.151Z,14.36
2022-10-06T18:30:29.391Z,14.27
2022-10-06T18:36:58.564Z,14.20
2022-10-06T18:40:06.126Z,14.22
2022-10-06T18:43:10.851Z,14.12
2022-10-06T18:46:34.987Z,14.03
2022-10-06T18:49:39.002Z,13.94
2022-10-06T18:52:43.595Z,13.91
2022-10-06T18:55:47.492Z,13.93
2022-10-06T18:58:51.746Z,13.88
2022-10-06T19:01:56.670Z,13.77
2022-10-06T19:05:00.655Z,13.72
2022-10-06T19:08:05.129Z,13.70
2022-10-06T19:11:27.883Z,13.66
2022-10-06T19:14:35.935Z,13.61
2022-10-06T19:17:40.738Z,13.55
2022-10-06T19:20:50.914Z,13.57
2022-10-06T19:23:55.631Z,13.56
2022-10-06T19:26:59.849Z,13.57
2022-10-06T19:30:04.264Z,13.56
2022-10-06T19:33:09.784Z,13.47
2022-10-06T19:36:16.864Z,13.45
2022-10-06T19:39:27.156Z,13.41
2022-10-06T19:42:50.910Z,13.27
2022-10-06T19:45:56.538Z,13.25
2022-10-06T19:49:05.494Z,13.27
2022-10-06T19:52:11.399Z,13.28
2022-10-06T19:55:15.204Z,13.23
2022-10-06T19:58:19.204Z,13.28
2022-10-06T20:01:23.030Z,13.25
2022-10-06T20:04:26.907Z,13.12
2022-10-06T20:07:30.993Z,13.11
2022-10-06T20:10:35.207Z,13.12
2022-10-06T20:13:40.665Z,13.11
2022-10-06T20:16:47.450Z,13.08
2022-10-06T20:19:56.660Z,13.05
2022-10-06T20:23:01.154Z,13.00
2022-10-06T20:26:13.164Z,12.97
2022-10-06T20:29:19.788Z,12.88
2022-10-06T20:32:23.860Z,12.84
2022-10-06T20:35:27.807Z,12.83
2022-10-06T20:38:50.889Z,12.86
2022-10-06T20:41:56.105Z,12.73
2022-10-06T20:44:59.971Z,12.69
2022-10-06T20:48:04.159Z,12.66
2022-10-06T20:51:12.425Z,12.64
2022-10-06T20:54:18.720Z,12.60
2022-10-06T20:57:22.700Z,12.58
2022-10-06T21:00:26.630Z,12.58
2022-10-06T21:03:30.633Z,12.54
2022-10-06T21:06:37.836Z,12.42
2022-10-06T21:09:42.039Z,12.36
2022-10-06T21:12:46.194Z,12.34
2022-10-06T21:15:50.512Z,12.27
2022-10-06T21:18:54.422Z,12.20
2022-10-06T21:21:58.405Z,12.19
2022-10-06T21:25:02.824Z,12.20
2022-10-06T21:28:07.103Z,12.21
2022-10-06T21:31:14.183Z,12.18
2022-10-06T21:34:17.980Z,12.16
2022-10-06T21:37:21.910Z,12.07
2022-10-06T21:40:25.888Z,12.06
2022-10-06T21:43:30.043Z,12.05
2022-10-06T21:46:43.090Z,12.06
2022-10-06T21:49:47.233Z,12.11
2022-10-06T21:52:51.191Z,12.08
2022-10-06T21:55:55.012Z,12.06
2022-10-06T21:58:59.756Z,12.07
2022-10-06T22:02:03.921Z,11.91
2022-10-06T22:05:08.277Z,11.95
2022-10-06T22:08:13.320Z,11.90
2022-10-06T22:11:22.368Z,11.85
2022-10-06T22:14:26.444Z,11.78
2022-10-06T22:17:30.470Z,11.78
2022-10-06T22:20:35.004Z,11.78
2022-10-06T22:23:40.553Z,11.79
2022-10-06T22:26:45.347Z,11.74
2022-10-06T22:29:49.276Z,11.69
2022-10-06T22:32:53.224Z,11.69
2022-10-06T22:35:57.099Z,11.67
2022-10-06T22:39:01.712Z,11.70
2022-10-06T22:42:05.752Z,11.63
2022-10-06T22:45:10.208Z,11.66
2022-10-06T22:48:14.148Z,11.58
2022-10-06T22:51:18.434Z,11.48
2022-10-06T22:54:22.654Z,11.45
2022-10-06T22:57:27.259Z,11.44
2022-10-06T23:00:31.228Z,11.44
2022-10-06T23:03:34.997Z,11.42
2022-10-06T23:06:39.300Z,11.44
2022-10-06T23:09:44.113Z,11.43
2022-10-06T23:12:48.270Z,11.39
2022-10-06T23:16:05.128Z,11.41
2022-10-06T23:19:11.357Z,11.42
2022-10-06T23:22:15.583Z,11.41
2022-10-06T23:25:21.648Z,11.40
2022-10-06T23:28:29.351Z,11.37
2022-10-06T23:31:33.731Z,11.36
2022-10-06T23:34:37.637Z,11.29
2022-10-06T23:37:41.743Z,11.19
2022-10-06T23:40:45.854Z,11.16
2022-10-06T23:43:49.685Z,11.11
2022-10-06T23:46:53.862Z,11.12
2022-10-06T23:49:58.483Z,11.07
2022-10-06T23:53:02.931Z,11.05
2022-10-06T23:56:07.199Z,11.02
2022-10-06T23:59:11.418Z,11.00
